sensor_id;sensor_type;location;lat;lon;timestamp;temperature;humidity
84298;DHT22;74466;51.188;3.242;2024-01-15T00:00:39;5.10;85.10
84298;DHT22;74466;51.188;3.242;2024-01-15T00:03:05;5.10;84.80
84298;DHT22;74466;51.188;3.242;2024-01-15T00:05:30;5.20;84.80
84298;DHT22;74466;51.188;3.242;2024-01-15T00:07:56;5.10;85.30
84298;DHT22;74466;51.188;3.242;2024-01-15T00:10:23;5.10;84.90
84298;DHT22;74466;51.188;3.242;2024-01-15T00:12:49;5.10;85.00
84298;DHT22;74466;51.188;3.242;2024-01-15T00:15:14;5.10;84.50
84298;DHT22;74466;51.188;3.242;2024-01-15T00:17:40;5.00;84.50
84298;DHT22;74466;51.188;3.242;2024-01-15T00:20:07;5.00;84.10
84298;DHT22;74466;51.188;3.242;2024-01-15T00:22:32;5.00;83.10
84298;DHT22;74466;51.188;3.242;2024-01-15T00:25:01;5.10;82.80
84298;DHT22;74466;51.188;3.242;2024-01-15T00:27:27;5.10;81.90
84298;DHT22;74466;51.188;3.242;2024-01-15T00:29:52;5.10;81.00
84298;DHT22;74466;51.188;3.242;2024-01-15T00:32:20;5.20;81.50
84298;DHT22;74466;51.188;3.242;2024-01-15T00:34:45;5.10;81.20
84298;DHT22;74466;51.188;3.242;2024-01-15T00:37:11;5.10;80.60
84298;DHT22;74466;51.188;3.242;2024-01-15T00:39:37;5.20;80.20
84298;DHT22;74466;51.188;3.242;2024-01-15T00:42:03;5.10;79.80
84298;DHT22;74466;51.188;3.242;2024-01-15T00:44:28;5.20;79.80
84298;DHT22;74466;51.188;3.242;2024-01-15T00:46:54;5.20;79.80
84298;DHT22;74466;51.188;3.242;2024-01-15T00:49:20;5.20;79.50
84298;DHT22;74466;51.188;3.242;2024-01-15T00:51:45;5.10;79.80
84298;DHT22;74466;51.188;3.242;2024-01-15T00:54:11;5.20;79.60
84298;DHT22;74466;51.188;3.242;2024-01-15T00:56:37;5.20;79.70
84298;DHT22;74466;51.188;3.242;2024-01-15T00:59:03;5.20;80.00
84298;DHT22;74466;51.188;3.242;2024-01-15T01:01:28;5.10;80.20
84298;DHT22;74466;51.188;3.242;2024-01-15T01:03:55;5.20;80.40
84298;DHT22;74466;51.188;3.242;2024-01-15T01:06:21;5.20;81.00
84298;DHT22;74466;51.188;3.242;2024-01-15T01:08:46;5.20;81.30
84298;DHT22;74466;51.188;3.242;2024-01-15T01:11:15;5.20;81.60
84298;DHT22;74466;51.188;3.242;2024-01-15T01:13:41;5.20;81.70
84298;DHT22;74466;51.188;3.242;2024-01-15T01:16:07;5.30;81.80
84298;DHT22;74466;51.188;3.242;2024-01-15T01:18:34;5.30;81.80
84298;DHT22;74466;51.188;3.242;2024-01-15T01:21:00;5.30;81.50
84298;DHT22;74466;51.188;3.242;2024-01-15T01:23:26;5.30;80.90
84298;DHT22;74466;51.188;3.242;2024-01-15T01:25:52;5.30;80.60
84298;DHT22;74466;51.188;3.242;2024-01-15T01:28:18;5.30;80.60
84298;DHT22;74466;51.188;3.242;2024-01-15T01:30:44;5.30;80.90
84298;DHT22;74466;51.188;3.242;2024-01-15T01:33:09;5.20;80.70
84298;DHT22;74466;51.188;3.242;2024-01-15T01:35:35;5.30;80.00
84298;DHT22;74466;51.188;3.242;2024-01-15T01:38:01;5.30;80.10
84298;DHT22;74466;51.188;3.242;2024-01-15T01:40:27;5.30;80.30
84298;DHT22;74466;51.188;3.242;2024-01-15T01:42:52;5.20;81.40
84298;DHT22;74466;51.188;3.242;2024-01-15T01:45:18;5.20;80.30
84298;DHT22;74466;51.188;3.242;2024-01-15T01:47:44;5.20;80.30
84298;DHT22;74466;51.188;3.242;2024-01-15T01:50:10;5.20;79.90
84298;DHT22;74466;51.188;3.242;2024-01-15T01:52:37;5.30;79.40
84298;DHT22;74466;51.188;3.242;2024-01-15T01:55:03;5.30;79.30
84298;DHT22;74466;51.188;3.242;2024-01-15T01:57:31;5.30;79.50
84298;DHT22;74466;51.188;3.242;2024-01-15T01:59:59;5.30;79.50
84298;DHT22;74466;51.188;3.242;2024-01-15T02:02:25;5.30;79.30
84298;DHT22;74466;51.188;3.242;2024-01-15T02:04:51;5.20;80.40
84298;DHT22;74466;51.188;3.242;2024-01-15T02:07:17;5.30;79.50
84298;DHT22;74466;51.188;3.242;2024-01-15T02:09:44;5.30;78.90
84298;DHT22;74466;51.188;3.242;2024-01-15T02:12:11;5.30;79.20
84298;DHT22;74466;51.188;3.242;2024-01-15T02:14:37;5.30;79.10
84298;DHT22;74466;51.188;3.242;2024-01-15T02:17:03;5.20;79.00
84298;DHT22;74466;51.188;3.242;2024-01-15T02:19:28;5.20;79.10
84298;DHT22;74466;51.188;3.242;2024-01-15T02:21:54;5.20;79.30
84298;DHT22;74466;51.188;3.242;2024-01-15T02:24:20;5.20;78.90
84298;DHT22;74466;51.188;3.242;2024-01-15T02:26:45;5.20;79.10
84298;DHT22;74466;51.188;3.242;2024-01-15T02:29:12;5.20;79.30
84298;DHT22;74466;51.188;3.242;2024-01-15T02:31:38;5.20;80.70
84298;DHT22;74466;51.188;3.242;2024-01-15T02:34:04;5.10;79.10
84298;DHT22;74466;51.188;3.242;2024-01-15T02:36:30;5.20;79.70
84298;DHT22;74466;51.188;3.242;2024-01-15T02:38:56;5.20;79.20
84298;DHT22;74466;51.188;3.242;2024-01-15T02:41:22;5.20;79.60
84298;DHT22;74466;51.188;3.242;2024-01-15T02:43:48;5.20;79.10
84298;DHT22;74466;51.188;3.242;2024-01-15T02:46:13;5.20;79.30
84298;DHT22;74466;51.188;3.242;2024-01-15T02:48:40;5.20;79.50
84298;DHT22;74466;51.188;3.242;2024-01-15T02:51:05;5.10;79.30
84298;DHT22;74466;51.188;3.242;2024-01-15T02:53:31;5.10;79.00
84298;DHT22;74466;51.188;3.242;2024-01-15T02:55:56;5.20;79.30
84298;DHT22;74466;51.188;3.242;2024-01-15T02:58:22;5.10;78.70
84298;DHT22;74466;51.188;3.242;2024-01-15T03:00:48;5.10;79.30
84298;DHT22;74466;51.188;3.242;2024-01-15T03:03:14;5.10;79.00
84298;DHT22;74466;51.188;3.242;2024-01-15T03:05:39;5.10;79.40
84298;DHT22;74466;51.188;3.242;2024-01-15T03:08:05;5.10;79.60
84298;DHT22;74466;51.188;3.242;2024-01-15T03:10:31;5.00;79.50
84298;DHT22;74466;51.188;3.242;2024-01-15T03:12:57;5.00;79.60
84298;DHT22;74466;51.188;3.242;2024-01-15T03:15:23;5.00;80.00
84298;DHT22;74466;51.188;3.242;2024-01-15T03:17:49;5.00;80.40
84298;DHT22;74466;51.188;3.242;2024-01-15T03:20:15;5.00;80.30
84298;DHT22;74466;51.188;3.242;2024-01-15T03:22:40;5.00;80.60
84298;DHT22;74466;51.188;3.242;2024-01-15T03:25:06;5.00;81.00
84298;DHT22;74466;51.188;3.242;2024-01-15T03:27:32;5.00;81.20
84298;DHT22;74466;51.188;3.242;2024-01-15T03:29:59;4.90;81.00
84298;DHT22;74466;51.188;3.242;2024-01-15T03:32:24;5.00;80.50
84298;DHT22;74466;51.188;3.242;2024-01-15T03:34:50;5.00;80.20
84298;DHT22;74466;51.188;3.242;2024-01-15T03:37:17;5.00;79.70
84298;DHT22;74466;51.188;3.242;2024-01-15T03:39:43;5.00;79.30
84298;DHT22;74466;51.188;3.242;2024-01-15T03:42:09;5.00;79.00
84298;DHT22;74466;51.188;3.242;2024-01-15T03:44:34;4.90;78.80
84298;DHT22;74466;51.188;3.242;2024-01-15T03:47:00;4.90;78.90
84298;DHT22;74466;51.188;3.242;2024-01-15T03:49:26;4.90;78.30
84298;DHT22;74466;51.188;3.242;2024-01-15T03:51:52;4.90;78.30
84298;DHT22;74466;51.188;3.242;2024-01-15T03:54:18;4.90;78.50
84298;DHT22;74466;51.188;3.242;2024-01-15T03:56:44;4.90;78.00
84298;DHT22;74466;51.188;3.242;2024-01-15T03:59:09;4.90;78.70
84298;DHT22;74466;51.188;3.242;2024-01-15T04:01:35;4.90;78.50
84298;DHT22;74466;51.188;3.242;2024-01-15T04:04:01;4.90;78.50
84298;DHT22;74466;51.188;3.242;2024-01-15T04:06:27;4.90;78.40
84298;DHT22;74466;51.188;3.242;2024-01-15T04:08:53;4.80;78.90
84298;DHT22;74466;51.188;3.242;2024-01-15T04:11:19;4.90;78.00
84298;DHT22;74466;51.188;3.242;2024-01-15T04:13:45;4.80;77.90
84298;DHT22;74466;51.188;3.242;2024-01-15T04:16:10;4.80;77.90
84298;DHT22;74466;51.188;3.242;2024-01-15T04:18:36;4.80;78.30
84298;DHT22;74466;51.188;3.242;2024-01-15T04:21:04;4.70;78.50
84298;DHT22;74466;51.188;3.242;2024-01-15T04:23:31;4.70;78.30
84298;DHT22;74466;51.188;3.242;2024-01-15T04:25:57;4.60;78.10
84298;DHT22;74466;51.188;3.242;2024-01-15T04:28:23;4.50;78.20
84298;DHT22;74466;51.188;3.242;2024-01-15T04:30:48;4.50;78.10
84298;DHT22;74466;51.188;3.242;2024-01-15T04:33:14;4.40;77.70
84298;DHT22;74466;51.188;3.242;2024-01-15T04:35:39;4.40;77.70
84298;DHT22;74466;51.188;3.242;2024-01-15T04:38:06;4.30;77.80
84298;DHT22;74466;51.188;3.242;2024-01-15T04:40:31;4.30;77.70
84298;DHT22;74466;51.188;3.242;2024-01-15T04:42:57;4.20;77.20
84298;DHT22;74466;51.188;3.242;2024-01-15T04:45:23;4.20;77.00
84298;DHT22;74466;51.188;3.242;2024-01-15T04:47:54;4.20;77.40
84298;DHT22;74466;51.188;3.242;2024-01-15T04:50:21;4.10;76.70
84298;DHT22;74466;51.188;3.242;2024-01-15T04:52:47;4.10;76.40
84298;DHT22;74466;51.188;3.242;2024-01-15T04:55:12;4.10;76.00
84298;DHT22;74466;51.188;3.242;2024-01-15T04:57:38;4.10;76.10
84298;DHT22;74466;51.188;3.242;2024-01-15T05:00:04;4.10;75.90
84298;DHT22;74466;51.188;3.242;2024-01-15T05:02:30;4.10;76.00
84298;DHT22;74466;51.188;3.242;2024-01-15T05:04:56;4.00;76.90
84298;DHT22;74466;51.188;3.242;2024-01-15T05:07:22;4.00;77.10
84298;DHT22;74466;51.188;3.242;2024-01-15T05:09:47;4.00;76.90
84298;DHT22;74466;51.188;3.242;2024-01-15T05:12:13;4.00;76.40
84298;DHT22;74466;51.188;3.242;2024-01-15T05:14:39;3.90;76.20
84298;DHT22;74466;51.188;3.242;2024-01-15T05:17:05;3.90;76.00
84298;DHT22;74466;51.188;3.242;2024-01-15T05:19:31;3.90;76.00
84298;DHT22;74466;51.188;3.242;2024-01-15T05:21:56;3.90;76.10
84298;DHT22;74466;51.188;3.242;2024-01-15T05:24:22;3.90;76.40
84298;DHT22;74466;51.188;3.242;2024-01-15T05:26:48;3.90;76.30
84298;DHT22;74466;51.188;3.242;2024-01-15T05:29:14;4.00;77.00
84298;DHT22;74466;51.188;3.242;2024-01-15T05:31:42;4.10;77.50
84298;DHT22;74466;51.188;3.242;2024-01-15T05:34:07;4.10;77.40
84298;DHT22;74466;51.188;3.242;2024-01-15T05:36:33;4.10;77.50
84298;DHT22;74466;51.188;3.242;2024-01-15T05:38:59;4.10;77.70
84298;DHT22;74466;51.188;3.242;2024-01-15T05:41:24;4.10;77.40
84298;DHT22;74466;51.188;3.242;2024-01-15T05:43:50;4.10;77.50
84298;DHT22;74466;51.188;3.242;2024-01-15T05:46:16;4.10;77.80
84298;DHT22;74466;51.188;3.242;2024-01-15T05:48:41;4.10;77.70
84298;DHT22;74466;51.188;3.242;2024-01-15T05:51:07;4.20;77.60
84298;DHT22;74466;51.188;3.242;2024-01-15T05:53:33;4.20;77.00
84298;DHT22;74466;51.188;3.242;2024-01-15T05:55:59;4.20;77.30
84298;DHT22;74466;51.188;3.242;2024-01-15T05:58:27;4.10;77.50
84298;DHT22;74466;51.188;3.242;2024-01-15T06:00:52;4.10;77.60
84298;DHT22;74466;51.188;3.242;2024-01-15T06:03:18;4.00;78.00
84298;DHT22;74466;51.188;3.242;2024-01-15T06:05:44;3.90;78.00
84298;DHT22;74466;51.188;3.242;2024-01-15T06:08:09;3.80;78.10
84298;DHT22;74466;51.188;3.242;2024-01-15T06:10:35;3.80;78.30
84298;DHT22;74466;51.188;3.242;2024-01-15T06:13:01;3.70;77.90
84298;DHT22;74466;51.188;3.242;2024-01-15T06:15:27;3.80;77.90
84298;DHT22;74466;51.188;3.242;2024-01-15T06:17:52;3.70;78.30
84298;DHT22;74466;51.188;3.242;2024-01-15T06:20:19;3.70;78.20
84298;DHT22;74466;51.188;3.242;2024-01-15T06:22:44;3.70;78.10
84298;DHT22;74466;51.188;3.242;2024-01-15T06:25:10;3.70;78.00
84298;DHT22;74466;51.188;3.242;2024-01-15T06:27:36;3.60;78.20
84298;DHT22;74466;51.188;3.242;2024-01-15T06:30:01;3.60;78.00
84298;DHT22;74466;51.188;3.242;2024-01-15T06:32:27;3.60;77.70
84298;DHT22;74466;51.188;3.242;2024-01-15T06:34:53;3.60;77.70
84298;DHT22;74466;51.188;3.242;2024-01-15T06:37:19;3.60;77.50
84298;DHT22;74466;51.188;3.242;2024-01-15T06:39:45;3.50;77.20
84298;DHT22;74466;51.188;3.242;2024-01-15T06:42:11;3.60;77.30
84298;DHT22;74466;51.188;3.242;2024-01-15T06:44:37;3.60;76.80
84298;DHT22;74466;51.188;3.242;2024-01-15T06:47:02;3.60;76.90
84298;DHT22;74466;51.188;3.242;2024-01-15T06:49:31;3.50;76.80
84298;DHT22;74466;51.188;3.242;2024-01-15T06:51:57;3.50;76.00
84298;DHT22;74466;51.188;3.242;2024-01-15T06:54:23;3.50;76.00
84298;DHT22;74466;51.188;3.242;2024-01-15T06:56:49;3.50;75.90
84298;DHT22;74466;51.188;3.242;2024-01-15T06:59:15;3.50;75.60
84298;DHT22;74466;51.188;3.242;2024-01-15T07:01:41;3.50;75.50
84298;DHT22;74466;51.188;3.242;2024-01-15T07:04:07;3.50;75.30
84298;DHT22;74466;51.188;3.242;2024-01-15T07:06:33;3.50;75.70
84298;DHT22;74466;51.188;3.242;2024-01-15T07:08:59;3.50;75.60
84298;DHT22;74466;51.188;3.242;2024-01-15T07:11:25;3.50;75.30
84298;DHT22;74466;51.188;3.242;2024-01-15T07:13:51;3.60;75.50
84298;DHT22;74466;51.188;3.242;2024-01-15T07:16:17;3.60;75.80
84298;DHT22;74466;51.188;3.242;2024-01-15T07:18:43;3.50;76.00
84298;DHT22;74466;51.188;3.242;2024-01-15T07:21:08;3.50;76.00
84298;DHT22;74466;51.188;3.242;2024-01-15T07:23:34;3.50;75.90
84298;DHT22;74466;51.188;3.242;2024-01-15T07:26:00;3.50;76.10
84298;DHT22;74466;51.188;3.242;2024-01-15T07:28:26;3.50;76.40
84298;DHT22;74466;51.188;3.242;2024-01-15T07:30:54;3.50;76.30
84298;DHT22;74466;51.188;3.242;2024-01-15T07:33:20;3.50;76.40
84298;DHT22;74466;51.188;3.242;2024-01-15T07:35:45;3.50;76.20
84298;DHT22;74466;51.188;3.242;2024-01-15T07:38:12;3.60;75.70
84298;DHT22;74466;51.188;3.242;2024-01-15T07:40:37;3.60;75.00
84298;DHT22;74466;51.188;3.242;2024-01-15T07:43:03;3.60;74.20
84298;DHT22;74466;51.188;3.242;2024-01-15T07:45:29;3.60;73.10
84298;DHT22;74466;51.188;3.242;2024-01-15T07:47:55;3.60;72.80
84298;DHT22;74466;51.188;3.242;2024-01-15T07:50:21;3.60;72.00
84298;DHT22;74466;51.188;3.242;2024-01-15T07:52:47;3.60;72.60
84298;DHT22;74466;51.188;3.242;2024-01-15T07:55:14;3.50;72.80
84298;DHT22;74466;51.188;3.242;2024-01-15T07:57:40;3.50;74.80
84298;DHT22;74466;51.188;3.242;2024-01-15T08:00:06;3.50;72.30
84298;DHT22;74466;51.188;3.242;2024-01-15T08:02:32;3.50;73.50
84298;DHT22;74466;51.188;3.242;2024-01-15T08:04:58;3.60;71.30
84298;DHT22;74466;51.188;3.242;2024-01-15T08:07:26;3.60;72.80
84298;DHT22;74466;51.188;3.242;2024-01-15T08:09:53;3.60;72.50
84298;DHT22;74466;51.188;3.242;2024-01-15T08:12:19;3.70;72.80
84298;DHT22;74466;51.188;3.242;2024-01-15T08:14:44;3.70;73.00
84298;DHT22;74466;51.188;3.242;2024-01-15T08:17:11;3.70;73.90
84298;DHT22;74466;51.188;3.242;2024-01-15T08:19:36;3.60;74.10
84298;DHT22;74466;51.188;3.242;2024-01-15T08:22:02;3.70;74.20
84298;DHT22;74466;51.188;3.242;2024-01-15T08:24:28;3.70;74.90
84298;DHT22;74466;51.188;3.242;2024-01-15T08:26:54;3.70;75.00
84298;DHT22;74466;51.188;3.242;2024-01-15T08:29:21;3.70;75.00
84298;DHT22;74466;51.188;3.242;2024-01-15T08:31:48;3.70;75.50
84298;DHT22;74466;51.188;3.242;2024-01-15T08:34:14;3.70;75.40
84298;DHT22;74466;51.188;3.242;2024-01-15T08:36:40;3.80;75.50
84298;DHT22;74466;51.188;3.242;2024-01-15T08:39:06;3.80;75.30
84298;DHT22;74466;51.188;3.242;2024-01-15T08:41:33;3.80;76.50
84298;DHT22;74466;51.188;3.242;2024-01-15T08:43:59;3.80;76.50
84298;DHT22;74466;51.188;3.242;2024-01-15T08:46:24;3.80;75.70
84298;DHT22;74466;51.188;3.242;2024-01-15T08:48:50;3.80;76.20
84298;DHT22;74466;51.188;3.242;2024-01-15T08:51:16;3.80;76.20
84298;DHT22;74466;51.188;3.242;2024-01-15T08:53:43;3.80;76.00
84298;DHT22;74466;51.188;3.242;2024-01-15T08:56:09;3.80;76.60
84298;DHT22;74466;51.188;3.242;2024-01-15T08:58:35;3.80;76.20
84298;DHT22;74466;51.188;3.242;2024-01-15T09:01:01;3.80;76.00
84298;DHT22;74466;51.188;3.242;2024-01-15T09:03:26;3.80;76.60
84298;DHT22;74466;51.188;3.242;2024-01-15T09:05:52;3.80;76.70
84298;DHT22;74466;51.188;3.242;2024-01-15T09:08:18;3.80;77.20
84298;DHT22;74466;51.188;3.242;2024-01-15T09:10:43;3.90;76.90
84298;DHT22;74466;51.188;3.242;2024-01-15T09:13:09;4.10;76.10
84298;DHT22;74466;51.188;3.242;2024-01-15T09:15:35;4.20;75.50
84298;DHT22;74466;51.188;3.242;2024-01-15T09:18:01;4.40;75.00
84298;DHT22;74466;51.188;3.242;2024-01-15T09:20:28;4.60;73.70
84298;DHT22;74466;51.188;3.242;2024-01-15T09:22:54;4.80;73.40
84298;DHT22;74466;51.188;3.242;2024-01-15T09:25:20;4.60;73.30
84298;DHT22;74466;51.188;3.242;2024-01-15T09:27:45;4.60;73.80
84298;DHT22;74466;51.188;3.242;2024-01-15T09:30:12;4.50;74.10
84298;DHT22;74466;51.188;3.242;2024-01-15T09:32:37;4.40;74.70
84298;DHT22;74466;51.188;3.242;2024-01-15T09:35:03;4.40;75.70
84298;DHT22;74466;51.188;3.242;2024-01-15T09:37:29;4.30;75.30
84298;DHT22;74466;51.188;3.242;2024-01-15T09:39:55;4.40;75.00
84298;DHT22;74466;51.188;3.242;2024-01-15T09:42:23;4.40;75.10
84298;DHT22;74466;51.188;3.242;2024-01-15T09:44:50;4.50;74.20
84298;DHT22;74466;51.188;3.242;2024-01-15T09:47:17;4.60;74.10
84298;DHT22;74466;51.188;3.242;2024-01-15T09:49:43;4.60;73.40
84298;DHT22;74466;51.188;3.242;2024-01-15T09:52:11;4.60;74.20
84298;DHT22;74466;51.188;3.242;2024-01-15T09:54:37;4.60;73.80
84298;DHT22;74466;51.188;3.242;2024-01-15T09:57:04;4.60;74.30
84298;DHT22;74466;51.188;3.242;2024-01-15T09:59:31;4.70;74.00
84298;DHT22;74466;51.188;3.242;2024-01-15T10:01:58;4.80;73.80
84298;DHT22;74466;51.188;3.242;2024-01-15T10:04:26;4.70;73.90
84298;DHT22;74466;51.188;3.242;2024-01-15T10:06:52;4.60;72.50
84298;DHT22;74466;51.188;3.242;2024-01-15T10:09:18;4.50;72.90
84298;DHT22;74466;51.188;3.242;2024-01-15T10:11:44;4.70;73.30
84298;DHT22;74466;51.188;3.242;2024-01-15T10:14:11;4.80;73.40
84298;DHT22;74466;51.188;3.242;2024-01-15T10:16:38;5.00;73.40
84298;DHT22;74466;51.188;3.242;2024-01-15T10:19:04;5.00;73.20
84298;DHT22;74466;51.188;3.242;2024-01-15T10:21:32;5.10;73.50
84298;DHT22;74466;51.188;3.242;2024-01-15T10:24:00;5.00;73.00
84298;DHT22;74466;51.188;3.242;2024-01-15T10:26:26;4.80;74.30
84298;DHT22;74466;51.188;3.242;2024-01-15T10:28:52;4.80;73.40
84298;DHT22;74466;51.188;3.242;2024-01-15T10:31:18;4.80;74.30
84298;DHT22;74466;51.188;3.242;2024-01-15T10:33:49;4.80;74.60
84298;DHT22;74466;51.188;3.242;2024-01-15T10:36:16;4.90;74.90
84298;DHT22;74466;51.188;3.242;2024-01-15T10:38:46;5.00;73.90
84298;DHT22;74466;51.188;3.242;2024-01-15T10:41:12;5.20;73.40
84298;DHT22;74466;51.188;3.242;2024-01-15T10:43:38;5.20;73.40
84298;DHT22;74466;51.188;3.242;2024-01-15T10:46:07;5.10;73.00
84298;DHT22;74466;51.188;3.242;2024-01-15T10:48:33;5.00;74.00
84298;DHT22;74466;51.188;3.242;2024-01-15T10:51:01;4.90;74.00
84298;DHT22;74466;51.188;3.242;2024-01-15T10:53:39;4.80;75.00
84298;DHT22;74466;51.188;3.242;2024-01-15T10:56:08;4.70;75.00
84298;DHT22;74466;51.188;3.242;2024-01-15T10:58:37;4.60;75.00
84298;DHT22;74466;51.188;3.242;2024-01-15T11:01:05;4.60;75.80
84298;DHT22;74466;51.188;3.242;2024-01-15T11:03:31;4.80;75.70
84298;DHT22;74466;51.188;3.242;2024-01-15T11:05:57;4.90;74.60
84298;DHT22;74466;51.188;3.242;2024-01-15T11:08:25;5.00;74.80
84298;DHT22;74466;51.188;3.242;2024-01-15T11:10:51;4.90;73.50
84298;DHT22;74466;51.188;3.242;2024-01-15T11:13:40;4.90;74.00
84298;DHT22;74466;51.188;3.242;2024-01-15T11:16:07;5.10;74.10
84298;DHT22;74466;51.188;3.242;2024-01-15T11:18:40;5.20;73.60
84298;DHT22;74466;51.188;3.242;2024-01-15T11:23:51;5.20;72.40
84298;DHT22;74466;51.188;3.242;2024-01-15T11:28:57;5.00;73.50
84298;DHT22;74466;51.188;3.242;2024-01-15T11:34:13;4.80;74.30
84298;DHT22;74466;51.188;3.242;2024-01-15T11:42:01;4.60;76.30
84298;DHT22;74466;51.188;3.242;2024-01-15T11:44:29;4.70;76.10
84298;DHT22;74466;51.188;3.242;2024-01-15T11:47:09;4.60;76.20
84298;DHT22;74466;51.188;3.242;2024-01-15T11:49:59;4.60;75.50
84298;DHT22;74466;51.188;3.242;2024-01-15T11:52:36;4.60;76.20
84298;DHT22;74466;51.188;3.242;2024-01-15T11:55:19;4.70;75.90
84298;DHT22;74466;51.188;3.242;2024-01-15T11:57:54;4.70;75.40
84298;DHT22;74466;51.188;3.242;2024-01-15T12:00:21;4.70;75.30
84298;DHT22;74466;51.188;3.242;2024-01-15T12:02:48;4.60;75.70
84298;DHT22;74466;51.188;3.242;2024-01-15T12:05:15;4.60;75.10
84298;DHT22;74466;51.188;3.242;2024-01-15T12:07:43;4.80;75.00
84298;DHT22;74466;51.188;3.242;2024-01-15T12:10:16;4.70;74.80
84298;DHT22;74466;51.188;3.242;2024-01-15T12:15:12;4.80;75.70
84298;DHT22;74466;51.188;3.242;2024-01-15T12:17:38;4.70;75.80
84298;DHT22;74466;51.188;3.242;2024-01-15T12:20:07;4.80;76.50
84298;DHT22;74466;51.188;3.242;2024-01-15T12:22:33;4.80;75.30
84298;DHT22;74466;51.188;3.242;2024-01-15T12:24:59;4.80;75.50
84298;DHT22;74466;51.188;3.242;2024-01-15T12:27:25;4.70;75.60
84298;DHT22;74466;51.188;3.242;2024-01-15T12:29:53;4.90;76.50
84298;DHT22;74466;51.188;3.242;2024-01-15T12:32:19;4.90;75.00
84298;DHT22;74466;51.188;3.242;2024-01-15T12:34:46;5.00;75.20
84298;DHT22;74466;51.188;3.242;2024-01-15T12:37:12;5.10;75.20
84298;DHT22;74466;51.188;3.242;2024-01-15T12:39:38;5.10;74.90
84298;DHT22;74466;51.188;3.242;2024-01-15T12:42:04;5.20;74.90
84298;DHT22;74466;51.188;3.242;2024-01-15T12:44:31;5.30;75.40
84298;DHT22;74466;51.188;3.242;2024-01-15T12:46:57;5.20;74.10
84298;DHT22;74466;51.188;3.242;2024-01-15T12:49:24;5.10;74.70
84298;DHT22;74466;51.188;3.242;2024-01-15T12:51:53;5.00;74.50
84298;DHT22;74466;51.188;3.242;2024-01-15T12:54:20;4.90;75.80
84298;DHT22;74466;51.188;3.242;2024-01-15T12:56:46;4.90;75.00
84298;DHT22;74466;51.188;3.242;2024-01-15T12:59:11;4.90;75.30
84298;DHT22;74466;51.188;3.242;2024-01-15T13:01:37;4.90;75.60
84298;DHT22;74466;51.188;3.242;2024-01-15T13:04:03;4.90;75.50
84298;DHT22;74466;51.188;3.242;2024-01-15T13:06:29;4.80;75.60
84298;DHT22;74466;51.188;3.242;2024-01-15T13:08:54;4.90;76.00
84298;DHT22;74466;51.188;3.242;2024-01-15T13:11:20;4.90;75.30
84298;DHT22;74466;51.188;3.242;2024-01-15T13:13:46;4.90;75.50
84298;DHT22;74466;51.188;3.242;2024-01-15T13:16:13;4.80;74.90
84298;DHT22;74466;51.188;3.242;2024-01-15T13:18:39;4.80;75.50
84298;DHT22;74466;51.188;3.242;2024-01-15T13:21:04;4.80;75.20
84298;DHT22;74466;51.188;3.242;2024-01-15T13:23:30;4.70;75.40
84298;DHT22;74466;51.188;3.242;2024-01-15T13:25:56;4.70;75.20
84298;DHT22;74466;51.188;3.242;2024-01-15T13:28:22;4.70;75.50
84298;DHT22;74466;51.188;3.242;2024-01-15T13:30:47;4.60;75.30
84298;DHT22;74466;51.188;3.242;2024-01-15T13:33:13;4.60;75.50
84298;DHT22;74466;51.188;3.242;2024-01-15T13:35:39;4.60;76.10
84298;DHT22;74466;51.188;3.242;2024-01-15T13:38:04;4.70;76.50
84298;DHT22;74466;51.188;3.242;2024-01-15T13:40:30;4.60;76.50
84298;DHT22;74466;51.188;3.242;2024-01-15T13:42:56;4.60;76.30
84298;DHT22;74466;51.188;3.242;2024-01-15T13:45:22;4.60;76.00
84298;DHT22;74466;51.188;3.242;2024-01-15T13:47:49;4.50;76.40
84298;DHT22;74466;51.188;3.242;2024-01-15T13:50:15;4.60;76.50
84298;DHT22;74466;51.188;3.242;2024-01-15T13:52:41;4.70;75.80
84298;DHT22;74466;51.188;3.242;2024-01-15T13:55:07;4.70;75.80
84298;DHT22;74466;51.188;3.242;2024-01-15T13:57:34;4.70;75.40
84298;DHT22;74466;51.188;3.242;2024-01-15T14:00:00;4.70;75.70
84298;DHT22;74466;51.188;3.242;2024-01-15T14:02:25;4.70;75.30
84298;DHT22;74466;51.188;3.242;2024-01-15T14:04:51;4.70;74.40
84298;DHT22;74466;51.188;3.242;2024-01-15T14:07:17;4.70;74.70
84298;DHT22;74466;51.188;3.242;2024-01-15T14:09:42;4.70;75.20
84298;DHT22;74466;51.188;3.242;2024-01-15T14:12:08;4.60;74.30
84298;DHT22;74466;51.188;3.242;2024-01-15T14:14:34;4.60;74.80
84298;DHT22;74466;51.188;3.242;2024-01-15T14:16:59;4.60;73.60
84298;DHT22;74466;51.188;3.242;2024-01-15T14:19:25;4.50;73.90
84298;DHT22;74466;51.188;3.242;2024-01-15T14:21:51;4.50;73.40
84298;DHT22;74466;51.188;3.242;2024-01-15T14:24:16;4.60;73.70
84298;DHT22;74466;51.188;3.242;2024-01-15T14:26:42;4.50;73.90
84298;DHT22;74466;51.188;3.242;2024-01-15T14:29:08;4.40;74.30
84298;DHT22;74466;51.188;3.242;2024-01-15T14:31:34;4.40;74.60
84298;DHT22;74466;51.188;3.242;2024-01-15T14:34:00;4.40;75.50
84298;DHT22;74466;51.188;3.242;2024-01-15T14:36:28;4.30;75.70
84298;DHT22;74466;51.188;3.242;2024-01-15T14:38:54;4.30;77.10
84298;DHT22;74466;51.188;3.242;2024-01-15T14:41:19;4.30;75.40
84298;DHT22;74466;51.188;3.242;2024-01-15T14:43:46;4.30;74.60
84298;DHT22;74466;51.188;3.242;2024-01-15T14:46:11;4.40;75.50
84298;DHT22;74466;51.188;3.242;2024-01-15T14:48:37;4.50;75.00
84298;DHT22;74466;51.188;3.242;2024-01-15T14:51:03;4.40;74.80
84298;DHT22;74466;51.188;3.242;2024-01-15T14:53:29;4.50;74.80
84298;DHT22;74466;51.188;3.242;2024-01-15T14:55:54;4.40;74.70
84298;DHT22;74466;51.188;3.242;2024-01-15T14:58:20;4.50;74.70
84298;DHT22;74466;51.188;3.242;2024-01-15T15:00:46;4.50;74.60
84298;DHT22;74466;51.188;3.242;2024-01-15T15:03:11;4.40;74.80
84298;DHT22;74466;51.188;3.242;2024-01-15T15:05:39;4.40;74.30
84298;DHT22;74466;51.188;3.242;2024-01-15T15:08:05;4.40;74.50
84298;DHT22;74466;51.188;3.242;2024-01-15T15:10:34;4.40;74.80
84298;DHT22;74466;51.188;3.242;2024-01-15T15:13:01;4.40;74.80
84298;DHT22;74466;51.188;3.242;2024-01-15T15:15:27;4.40;75.20
84298;DHT22;74466;51.188;3.242;2024-01-15T15:17:52;4.40;75.10
84298;DHT22;74466;51.188;3.242;2024-01-15T15:20:18;4.40;74.90
84298;DHT22;74466;51.188;3.242;2024-01-15T15:22:44;4.40;74.70
84298;DHT22;74466;51.188;3.242;2024-01-15T15:25:10;4.40;74.90
84298;DHT22;74466;51.188;3.242;2024-01-15T15:27:37;4.40;74.70
84298;DHT22;74466;51.188;3.242;2024-01-15T15:30:04;4.40;74.00
84298;DHT22;74466;51.188;3.242;2024-01-15T15:32:29;4.30;73.60
84298;DHT22;74466;51.188;3.242;2024-01-15T15:34:55;4.30;73.60
84298;DHT22;74466;51.188;3.242;2024-01-15T15:37:21;4.30;73.90
84298;DHT22;74466;51.188;3.242;2024-01-15T15:39:47;4.30;74.20
84298;DHT22;74466;51.188;3.242;2024-01-15T15:42:12;4.20;73.90
84298;DHT22;74466;51.188;3.242;2024-01-15T15:44:39;4.20;74.20
84298;DHT22;74466;51.188;3.242;2024-01-15T15:47:12;4.20;74.90
84298;DHT22;74466;51.188;3.242;2024-01-15T15:49:41;4.10;75.10
84298;DHT22;74466;51.188;3.242;2024-01-15T15:52:08;4.10;74.80
84298;DHT22;74466;51.188;3.242;2024-01-15T15:54:34;4.00;74.80